createdAt,value
2018-05-14T00:00:41.259Z,18.13
2018-05-14T00:01:41.170Z,18.19
2018-05-14T00:02:41.967Z,18.10
2018-05-14T00:03:41.140Z,18.16
2018-05-14T00:04:41.963Z,18.11
2018-05-14T00:05:41.131Z,18.05
2018-05-14T00:06:41.049Z,18.06
2018-05-14T00:07:41.027Z,18.05
2018-05-14T00:08:41.005Z,18.01
2018-05-14T00:09:41.975Z,18.02
2018-05-14T00:10:40.997Z,18.05
2018-05-14T00:11:40.987Z,18.03
2018-05-14T00:12:41.466Z,18.01
2018-05-14T00:13:40.886Z,17.99
2018-05-14T00:14:40.859Z,18.02
2018-05-14T00:15:41.474Z,18.03
2018-05-14T00:16:40.868Z,17.99
2018-05-14T00:17:40.788Z,17.95
2018-05-14T00:18:41.026Z,17.87
2018-05-14T00:19:40.743Z,17.87
2018-05-14T00:20:40.721Z,17.79
2018-05-14T00:21:41.023Z,17.86
2018-05-14T00:22:40.668Z,17.87
2018-05-14T00:23:40.648Z,17.84
2018-05-14T00:24:40.681Z,17.79
2018-05-14T00:25:40.602Z,17.69
2018-05-14T00:26:41.035Z,17.63
2018-05-14T00:27:40.550Z,17.73
2018-05-14T00:28:40.528Z,17.65
2018-05-14T00:29:40.504Z,17.62
2018-05-14T00:30:40.479Z,17.50
2018-05-14T00:31:40.518Z,17.55
2018-05-14T00:32:40.428Z,17.52
2018-05-14T00:33:40.970Z,17.45
2018-05-14T00:34:40.389Z,17.46
2018-05-14T00:35:40.365Z,17.40
2018-05-14T00:36:40.533Z,17.39
2018-05-14T00:37:40.369Z,17.24
2018-05-14T00:38:40.287Z,17.28
2018-05-14T00:39:40.272Z,17.24
2018-05-14T00:40:40.243Z,17.20
2018-05-14T00:41:40.970Z,17.12
2018-05-14T00:42:40.247Z,17.20
2018-05-14T00:43:40.170Z,17.10
2018-05-14T00:44:40.975Z,17.06
2018-05-14T00:45:40.118Z,17.12
2018-05-14T00:46:40.095Z,17.13
2018-05-14T00:47:40.533Z,17.21
2018-05-14T00:48:40.108Z,17.17
2018-05-14T00:49:40.026Z,17.12
2018-05-14T00:50:40.003Z,17.09
2018-05-14T00:51:41.637Z,17.09
2018-05-14T00:52:39.985Z,17.03
2018-05-14T00:53:40.028Z,17.05
2018-05-14T00:54:40.069Z,17.00
2018-05-14T00:55:40.477Z,17.02
2018-05-14T00:56:39.853Z,17.05
2018-05-14T00:57:39.831Z,16.91
2018-05-14T00:58:40.034Z,16.91
2018-05-14T00:59:39.828Z,16.84
2018-05-14T01:00:39.830Z,16.74
2018-05-14T01:01:39.733Z,16.80
2018-05-14T01:02:40.488Z,16.80
2018-05-14T01:03:39.747Z,16.74
2018-05-14T01:04:39.674Z,16.70
2018-05-14T01:05:40.485Z,16.74
2018-05-14T01:06:39.620Z,16.81
2018-05-14T01:07:39.595Z,16.74
2018-05-14T01:08:39.608Z,16.73
2018-05-14T01:09:39.542Z,16.69
2018-05-14T01:10:39.520Z,16.73
2018-05-14T01:11:39.539Z,16.81
2018-05-14T01:12:39.980Z,16.73
2018-05-14T01:13:39.442Z,16.82
2018-05-14T01:14:39.465Z,16.73
2018-05-14T01:15:39.550Z,16.73
2018-05-14T01:16:39.383Z,16.81
2018-05-14T01:17:39.351Z,16.69
2018-05-14T01:18:39.993Z,16.73
2018-05-14T01:19:39.299Z,16.73
2018-05-14T01:20:39.319Z,16.74
2018-05-14T01:21:39.248Z,16.74
2018-05-14T01:22:39.978Z,16.67
2018-05-14T01:23:39.202Z,16.73
2018-05-14T01:24:39.986Z,16.55
2018-05-14T01:25:39.243Z,16.49
2018-05-14T01:26:39.127Z,16.54
2018-05-14T01:27:39.987Z,16.51
2018-05-14T01:28:39.079Z,16.44
2018-05-14T01:29:39.056Z,16.34
2018-05-14T01:30:39.083Z,16.27
2018-05-14T01:31:39.002Z,16.18
2018-05-14T01:32:38.980Z,16.10
2018-05-14T01:33:38.956Z,16.08
2018-05-14T01:34:39.486Z,16.10
2018-05-14T01:35:38.982Z,16.02
2018-05-14T01:36:38.887Z,15.95
2018-05-14T01:37:39.046Z,15.91
2018-05-14T01:38:38.836Z,15.88
2018-05-14T01:39:38.807Z,15.86
2018-05-14T01:40:39.486Z,15.89
2018-05-14T01:41:38.757Z,15.78
2018-05-14T01:42:38.770Z,15.74
2018-05-14T01:43:39.483Z,15.77
2018-05-14T01:44:38.682Z,15.74
2018-05-14T01:45:38.661Z,15.71
2018-05-14T01:46:38.639Z,15.70
2018-05-14T01:47:38.650Z,15.73
2018-05-14T01:48:38.596Z,15.67
2018-05-14T01:49:38.563Z,15.58
2018-05-14T01:50:38.540Z,15.62
2018-05-14T01:51:39.496Z,15.52
2018-05-14T01:52:38.530Z,15.62
2018-05-14T01:53:38.525Z,15.45
2018-05-14T01:54:38.985Z,15.58
2018-05-14T01:55:38.420Z,15.44
2018-05-14T01:56:38.385Z,15.47
2018-05-14T01:57:38.989Z,15.49
2018-05-14T01:58:38.384Z,15.41
2018-05-14T01:59:38.545Z,15.47
2018-05-14T02:00:38.293Z,15.41
2018-05-14T02:01:38.264Z,15.34
2018-05-14T02:02:38.986Z,15.33
2018-05-14T02:03:38.282Z,15.35
2018-05-14T02:04:38.197Z,15.41
2018-05-14T02:05:38.988Z,15.35
2018-05-14T02:06:38.137Z,15.37
2018-05-14T02:07:38.991Z,15.25
2018-05-14T02:08:38.139Z,15.38
2018-05-14T02:09:38.062Z,15.34
2018-05-14T02:10:38.987Z,15.34
2018-05-14T02:11:38.012Z,15.23
2018-05-14T02:12:38.490Z,15.26
2018-05-14T02:13:38.005Z,15.33
2018-05-14T02:14:37.939Z,15.27
2018-05-14T02:15:38.050Z,15.23
2018-05-14T02:16:37.886Z,15.15
2018-05-14T02:17:38.493Z,15.13
2018-05-14T02:18:37.835Z,15.18
2018-05-14T02:19:37.812Z,15.13
2018-05-14T02:20:37.843Z,15.12
2018-05-14T02:21:38.498Z,15.08
2018-05-14T02:22:37.738Z,15.02
2018-05-14T02:23:37.713Z,15.08
2018-05-14T02:24:37.733Z,15.00
2018-05-14T02:25:38.491Z,15.07
2018-05-14T02:26:37.684Z,15.02
2018-05-14T02:27:37.610Z,14.98
2018-05-14T02:28:37.588Z,15.02
2018-05-14T02:29:38.498Z,14.95
2018-05-14T02:30:37.579Z,15.00
2018-05-14T02:31:37.510Z,14.97
2018-05-14T02:32:37.530Z,14.98
2018-05-14T02:33:37.459Z,14.87
2018-05-14T02:34:37.434Z,14.93
2018-05-14T02:35:37.407Z,14.97
2018-05-14T02:36:37.995Z,14.83
2018-05-14T02:37:37.402Z,14.90
2018-05-14T02:38:37.336Z,14.86
2018-05-14T02:39:37.368Z,14.82
2018-05-14T02:40:37.993Z,14.90
2018-05-14T02:41:37.258Z,14.86
2018-05-14T02:42:37.275Z,14.85
2018-05-14T02:43:37.208Z,14.90
2018-05-14T02:44:37.995Z,14.86
2018-05-14T02:45:37.159Z,14.90
2018-05-14T02:46:37.138Z,14.89
2018-05-14T02:47:37.144Z,14.86
2018-05-14T02:48:37.612Z,14.93
2018-05-14T02:49:37.058Z,14.90
2018-05-14T02:50:37.038Z,14.93
2018-05-14T02:51:37.023Z,14.89
2018-05-14T02:52:36.982Z,14.86
2018-05-14T02:53:37.004Z,14.82
2018-05-14T02:54:37.497Z,14.89
2018-05-14T02:55:36.900Z,14.83
2018-05-14T02:56:36.878Z,14.90
2018-05-14T02:57:37.503Z,14.83
2018-05-14T02:58:36.893Z,14.82
2018-05-14T02:59:37.506Z,14.74
2018-05-14T03:00:36.777Z,14.74
2018-05-14T03:01:36.749Z,14.67
2018-05-14T03:02:36.732Z,14.77
2018-05-14T03:03:37.564Z,14.77
2018-05-14T03:04:36.674Z,14.93
2018-05-14T03:05:36.648Z,14.94
2018-05-14T03:06:36.624Z,14.93
2018-05-14T03:07:36.596Z,14.87
2018-05-14T03:08:36.619Z,14.95
2018-05-14T03:09:36.545Z,14.95
2018-05-14T03:10:36.522Z,14.89
2018-05-14T03:11:36.496Z,14.94
2018-05-14T03:12:36.475Z,14.98
2018-05-14T03:13:36.557Z,14.97
2018-05-14T03:14:36.471Z,14.97
2018-05-14T03:15:36.432Z,14.89
2018-05-14T03:16:36.374Z,14.95
2018-05-14T03:17:36.350Z,14.86
2018-05-14T03:18:36.328Z,14.94
2018-05-14T03:19:36.340Z,14.94
2018-05-14T03:20:36.267Z,14.93
2018-05-14T03:21:36.257Z,14.87
2018-05-14T03:22:36.216Z,14.85
2018-05-14T03:23:36.190Z,14.83
2018-05-14T03:24:36.217Z,14.90
2018-05-14T03:25:36.141Z,14.86
2018-05-14T03:26:36.156Z,14.85
2018-05-14T03:27:36.089Z,14.90
2018-05-14T03:28:36.060Z,14.89
2018-05-14T03:29:36.090Z,14.97
2018-05-14T03:30:36.060Z,15.00
2018-05-14T03:31:35.992Z,14.90
2018-05-14T03:32:36.930Z,14.98
2018-05-14T03:33:35.936Z,14.90
2018-05-14T03:34:35.963Z,14.94
2018-05-14T03:35:35.940Z,15.05
2018-05-14T03:36:35.856Z,14.98
2018-05-14T03:37:35.836Z,15.00
2018-05-14T03:38:35.809Z,15.01
2018-05-14T03:39:35.796Z,15.20
2018-05-14T03:40:35.825Z,15.25
2018-05-14T03:41:35.776Z,15.30
2018-05-14T03:42:35.715Z,15.38
2018-05-14T03:43:35.685Z,15.33
2018-05-14T03:44:35.655Z,15.43
2018-05-14T03:45:35.644Z,15.51
2018-05-14T03:46:35.649Z,15.45
2018-05-14T03:47:35.598Z,15.58
2018-05-14T03:48:35.565Z,15.58
2018-05-14T03:49:35.529Z,15.47
2018-05-14T03:50:35.507Z,15.53
2018-05-14T03:51:35.528Z,15.55
2018-05-14T03:52:35.459Z,15.51
2018-05-14T03:53:35.430Z,15.67
2018-05-14T03:54:35.405Z,15.71
2018-05-14T03:55:35.390Z,15.89
2018-05-14T03:56:35.396Z,15.93
2018-05-14T03:57:35.330Z,15.93
2018-05-14T03:58:35.345Z,15.84
2018-05-14T03:59:35.277Z,15.91
2018-05-14T04:00:35.252Z,15.78
2018-05-14T04:01:35.234Z,15.91
2018-05-14T04:02:35.255Z,15.91
2018-05-14T04:03:35.184Z,15.91
2018-05-14T04:04:35.149Z,15.99
2018-05-14T04:05:35.128Z,15.96
2018-05-14T04:06:35.104Z,15.98
2018-05-14T04:07:35.119Z,15.98
2018-05-14T04:08:35.097Z,16.06
2018-05-14T04:09:35.027Z,16.14
2018-05-14T04:10:35.003Z,16.18
2018-05-14T04:11:35.020Z,16.33
2018-05-14T04:12:34.950Z,16.37
2018-05-14T04:13:34.941Z,16.32
2018-05-14T04:14:34.964Z,16.47
2018-05-14T04:15:34.877Z,16.33
2018-05-14T04:16:34.868Z,16.37
2018-05-14T04:17:34.841Z,16.39
2018-05-14T04:18:34.855Z,16.40
2018-05-14T04:19:34.821Z,16.44
2018-05-14T04:20:34.752Z,16.51
2018-05-14T04:21:34.730Z,16.49
2018-05-14T04:22:34.705Z,16.49
2018-05-14T04:23:34.729Z,16.57
2018-05-14T04:24:34.661Z,16.54
2018-05-14T04:25:34.632Z,16.57
2018-05-14T04:26:34.603Z,16.57
2018-05-14T04:27:34.580Z,16.63
2018-05-14T04:28:34.608Z,16.70
2018-05-14T04:29:34.530Z,16.69
2018-05-14T04:30:34.560Z,16.65
2018-05-14T04:31:35.018Z,16.80
2018-05-14T04:32:34.462Z,16.70
2018-05-14T04:33:34.441Z,16.72
2018-05-14T04:34:34.409Z,16.77
2018-05-14T04:35:34.424Z,16.70
2018-05-14T04:36:34.361Z,16.80
2018-05-14T04:37:34.335Z,16.82
2018-05-14T04:38:34.312Z,16.84
2018-05-14T04:39:34.330Z,16.91
2018-05-14T04:40:34.315Z,17.00
2018-05-14T04:41:34.242Z,17.02
2018-05-14T04:42:35.021Z,17.02
2018-05-14T04:43:34.199Z,17.07
2018-05-14T04:44:34.212Z,17.05
2018-05-14T04:45:34.148Z,17.09
2018-05-14T04:46:34.137Z,17.05
2018-05-14T04:47:34.147Z,17.02
2018-05-14T04:48:34.072Z,17.09
2018-05-14T04:49:34.102Z,17.09
2018-05-14T04:50:34.026Z,17.06
2018-05-14T04:51:34.080Z,17.22
2018-05-14T04:52:33.971Z,17.17
2018-05-14T04:53:33.951Z,17.21
2018-05-14T04:54:33.966Z,17.27
2018-05-14T04:55:33.908Z,17.28
2018-05-14T04:56:33.876Z,17.31
2018-05-14T04:57:33.914Z,17.38
2018-05-14T04:58:33.825Z,17.42
2018-05-14T04:59:33.833Z,17.36
2018-05-14T05:00:33.830Z,17.32
2018-05-14T05:01:33.754Z,17.39
2018-05-14T05:02:33.732Z,17.45
2018-05-14T05:03:33.757Z,17.49
2018-05-14T05:04:33.688Z,17.52
2018-05-14T05:05:33.658Z,17.57
2018-05-14T05:06:33.635Z,17.50
2018-05-14T05:07:33.611Z,17.52
2018-05-14T05:08:33.640Z,17.54
2018-05-14T05:09:33.569Z,17.54
2018-05-14T05:10:33.598Z,17.66
2018-05-14T05:11:33.590Z,17.66
2018-05-14T05:12:33.502Z,17.73
2018-05-14T05:13:33.513Z,17.77
2018-05-14T05:14:33.456Z,17.84
2018-05-14T05:15:33.468Z,17.81
2018-05-14T05:16:33.406Z,17.88
2018-05-14T05:17:33.377Z,17.95
2018-05-14T05:18:33.355Z,18.03
2018-05-14T05:19:33.391Z,18.05
2018-05-14T05:20:33.307Z,18.05
2018-05-14T05:21:33.289Z,18.08
2018-05-14T05:22:33.261Z,18.14
2018-05-14T05:23:33.239Z,18.16
2018-05-14T05:24:33.263Z,18.14
2018-05-14T05:25:33.242Z,18.17
2018-05-14T05:26:33.177Z,18.20
2018-05-14T05:27:33.155Z,18.21
2018-05-14T05:28:33.178Z,18.21
2018-05-14T05:29:33.109Z,18.29
2018-05-14T05:30:33.085Z,18.32
2018-05-14T05:31:33.111Z,18.34
2018-05-14T05:32:33.041Z,18.34
2018-05-14T05:33:33.023Z,18.34
2018-05-14T05:34:33.088Z,18.36
2018-05-14T05:35:33.003Z,18.45
2018-05-14T05:36:33.947Z,18.35
2018-05-14T05:37:32.977Z,18.45
2018-05-14T05:38:32.912Z,18.49
2018-05-14T05:39:32.886Z,18.51
2018-05-14T05:40:32.874Z,18.50
2018-05-14T05:41:32.881Z,18.51
2018-05-14T05:42:32.818Z,18.45
2018-05-14T05:43:32.796Z,18.53
2018-05-14T05:44:32.774Z,18.60
2018-05-14T05:45:32.797Z,18.61
2018-05-14T05:46:32.775Z,18.59
2018-05-14T05:47:32.752Z,18.65
2018-05-14T05:48:32.706Z,18.61
2018-05-14T05:49:32.685Z,18.61
2018-05-14T05:50:32.637Z,18.66
2018-05-14T05:51:32.617Z,18.66
2018-05-14T05:52:32.714Z,18.69
2018-05-14T05:53:32.569Z,18.72
2018-05-14T05:54:32.553Z,18.63
2018-05-14T05:55:32.532Z,18.68
2018-05-14T05:56:32.547Z,18.65
2018-05-14T05:57:32.480Z,18.69
2018-05-14T05:58:32.459Z,18.66
2018-05-14T05:59:32.447Z,18.82
2018-05-14T06:00:32.470Z,18.82
2018-05-14T06:01:32.396Z,18.78
2018-05-14T06:02:32.409Z,18.84
2018-05-14T06:03:32.347Z,18.76
2018-05-14T06:04:32.322Z,18.74
2018-05-14T06:05:32.299Z,18.86
2018-05-14T06:06:32.340Z,18.82
2018-05-14T06:07:32.300Z,18.78
2018-05-14T06:08:32.302Z,18.87
2018-05-14T06:09:32.303Z,18.84
2018-05-14T06:10:32.207Z,18.89
2018-05-14T06:11:32.164Z,18.94
2018-05-14T06:12:32.152Z,18.90
2018-05-14T06:13:32.177Z,18.94
2018-05-14T06:14:32.100Z,18.96
2018-05-14T06:15:32.176Z,19.06
2018-05-14T06:16:32.052Z,19.00
2018-05-14T06:17:32.034Z,18.99
2018-05-14T06:18:32.067Z,19.06
2018-05-14T06:19:31.983Z,19.00
2018-05-14T06:20:31.960Z,19.10
2018-05-14T06:21:31.939Z,18.99
2018-05-14T06:22:31.916Z,19.02
2018-05-14T06:23:31.946Z,19.09
2018-05-14T06:24:31.925Z,19.02
2018-05-14T06:25:31.852Z,19.13
2018-05-14T06:26:31.852Z,19.17
2018-05-14T06:27:31.812Z,19.15
2018-05-14T06:28:31.781Z,19.24
2018-05-14T06:29:31.839Z,19.25
2018-05-14T06:30:31.736Z,19.31
2018-05-14T06:31:31.717Z,19.30
2018-05-14T06:32:31.693Z,19.32
2018-05-14T06:33:31.674Z,19.37
2018-05-14T06:34:31.849Z,19.37
2018-05-14T06:35:31.666Z,19.43
2018-05-14T06:36:31.607Z,19.47
2018-05-14T06:37:31.585Z,19.53
2018-05-14T06:38:31.574Z,19.45
2018-05-14T06:39:31.590Z,19.50
2018-05-14T06:40:31.519Z,19.45
2018-05-14T06:41:31.496Z,19.45
2018-05-14T06:42:31.475Z,19.56
2018-05-14T06:43:31.452Z,19.56
2018-05-14T06:44:31.485Z,19.61
2018-05-14T06:45:31.404Z,19.61
2018-05-14T06:46:31.382Z,19.60
2018-05-14T06:47:31.363Z,19.70
2018-05-14T06:48:31.353Z,19.65
2018-05-14T06:49:31.362Z,19.75
2018-05-14T06:50:31.360Z,19.70
2018-05-14T06:51:31.271Z,19.79
2018-05-14T06:52:31.252Z,19.83
2018-05-14T06:53:31.231Z,19.79
2018-05-14T06:54:31.210Z,19.93
2018-05-14T06:55:31.234Z,19.98
2018-05-14T06:56:31.167Z,20.00
2018-05-14T06:57:31.146Z,20.11
2018-05-14T06:58:31.119Z,20.05
2018-05-14T06:59:31.104Z,20.01
2018-05-14T07:00:31.124Z,20.01
2018-05-14T07:01:31.056Z,20.15
2018-05-14T07:02:31.080Z,20.07
2018-05-14T07:03:31.011Z,20.08
2018-05-14T07:04:30.993Z,20.15
2018-05-14T07:05:30.966Z,20.20
2018-05-14T07:06:30.994Z,20.29
2018-05-14T07:07:30.925Z,20.26
2018-05-14T07:08:30.899Z,20.34
2018-05-14T07:09:30.881Z,20.38
2018-05-14T07:10:31.015Z,20.34
2018-05-14T07:11:30.844Z,20.41
2018-05-14T07:12:30.820Z,20.42
2018-05-14T07:13:30.840Z,20.46
2018-05-14T07:14:30.769Z,20.48
2018-05-14T07:15:30.750Z,20.44
2018-05-14T07:16:30.734Z,20.46
2018-05-14T07:17:30.752Z,20.57
2018-05-14T07:18:30.751Z,20.61
2018-05-14T07:19:30.668Z,20.63
2018-05-14T07:20:30.643Z,20.66
2018-05-14T07:21:30.620Z,20.64
2018-05-14T07:22:30.602Z,20.67
2018-05-14T07:23:30.645Z,20.74
2018-05-14T07:24:30.558Z,20.74
2018-05-14T07:25:30.759Z,20.86
2018-05-14T07:26:30.515Z,20.79
2018-05-14T07:27:30.554Z,20.82
2018-05-14T07:28:30.478Z,20.86
2018-05-14T07:29:30.456Z,20.96
2018-05-14T07:30:30.430Z,20.98
2018-05-14T07:31:30.410Z,20.97
2018-05-14T07:32:30.433Z,20.98
2018-05-14T07:33:30.371Z,21.04
2018-05-14T07:34:30.393Z,21.04
2018-05-14T07:35:30.324Z,21.03
2018-05-14T07:36:30.313Z,21.06
2018-05-14T07:37:30.292Z,21.12
2018-05-14T07:38:30.258Z,21.19
2018-05-14T07:39:30.306Z,21.22
2018-05-14T07:40:30.233Z,21.23
2018-05-14T07:41:30.201Z,21.18
2018-05-14T07:42:30.184Z,21.33
2018-05-14T07:43:30.159Z,21.27
2018-05-14T07:44:30.218Z,21.36
2018-05-14T07:45:30.123Z,21.45
2018-05-14T07:46:30.100Z,21.43
2018-05-14T07:47:30.094Z,21.45
2018-05-14T07:48:30.060Z,21.41
2018-05-14T07:49:30.107Z,21.53
2018-05-14T07:50:30.013Z,21.58
2018-05-14T07:51:30.012Z,21.55
2018-05-14T07:52:29.969Z,21.68
2018-05-14T07:53:29.975Z,21.56
2018-05-14T07:54:29.992Z,21.66
2018-05-14T07:55:29.935Z,21.70
2018-05-14T07:56:29.889Z,21.77
2018-05-14T07:57:29.938Z,21.67
2018-05-14T07:58:29.943Z,21.76
2018-05-14T07:59:29.873Z,21.71
2018-05-14T08:00:29.804Z,21.80
2018-05-14T08:01:29.789Z,21.76
2018-05-14T08:02:29.807Z,21.89
2018-05-14T08:03:29.745Z,21.90
2018-05-14T08:04:29.718Z,21.96
2018-05-14T08:05:29.702Z,21.99
2018-05-14T08:06:29.721Z,22.05
2018-05-14T08:07:29.702Z,22.11
2018-05-14T08:08:29.688Z,22.15
2018-05-14T08:09:29.617Z,22.27
2018-05-14T08:10:29.597Z,22.18
2018-05-14T08:11:29.573Z,22.26
2018-05-14T08:12:29.555Z,22.22
2018-05-14T08:13:29.587Z,22.30
2018-05-14T08:14:29.522Z,22.31
2018-05-14T08:15:29.499Z,22.39
2018-05-14T08:16:29.544Z,22.30
2018-05-14T08:17:29.498Z,22.30
2018-05-14T08:18:29.434Z,22.38
2018-05-14T08:19:29.417Z,22.52
2018-05-14T08:20:29.393Z,22.45
2018-05-14T08:21:29.413Z,22.46
2018-05-14T08:22:29.354Z,22.48
2018-05-14T08:23:29.433Z,22.64
2018-05-14T08:24:29.362Z,22.64
2018-05-14T08:25:29.289Z,22.67
2018-05-14T08:26:29.320Z,22.69
2018-05-14T08:27:29.257Z,22.73
2018-05-14T08:28:29.231Z,22.76
2018-05-14T08:29:29.210Z,22.86
2018-05-14T08:30:29.235Z,22.82
2018-05-14T08:31:29.243Z,22.81
2018-05-14T08:32:29.149Z,22.88
2018-05-14T08:33:29.135Z,22.88
2018-05-14T08:34:29.156Z,22.97
2018-05-14T08:35:29.089Z,22.85
2018-05-14T08:36:29.071Z,22.92
2018-05-14T08:37:29.047Z,22.97
2018-05-14T08:38:29.026Z,22.89
2018-05-14T08:39:29.072Z,23.07
2018-05-14T08:40:28.986Z,23.00
2018-05-14T08:41:29.033Z,22.94
2018-05-14T08:42:28.967Z,22.97
2018-05-14T08:43:28.935Z,23.04
2018-05-14T08:44:28.916Z,23.07
2018-05-14T08:45:28.888Z,23.14
2018-05-14T08:46:28.908Z,23.14
2018-05-14T08:47:28.846Z,23.21
2018-05-14T08:48:28.879Z,23.18
2018-05-14T08:49:28.808Z,23.19
2018-05-14T08:50:28.790Z,23.25
2018-05-14T08:51:28.766Z,23.29
2018-05-14T08:52:28.785Z,23.37
2018-05-14T08:53:28.728Z,23.32
2018-05-14T08:54:28.730Z,23.34
2018-05-14T08:55:28.691Z,23.26
2018-05-14T08:56:28.671Z,23.34
2018-05-14T08:57:28.722Z,23.26
2018-05-14T08:58:28.630Z,23.41
2018-05-14T08:59:28.610Z,23.28
2018-05-14T09:00:28.598Z,23.35
2018-05-14T09:01:28.569Z,23.45
2018-05-14T09:02:28.603Z,23.28
2018-05-14T09:03:28.530Z,23.34
2018-05-14T09:04:28.515Z,23.42
2018-05-14T09:05:28.497Z,23.42
2018-05-14T09:06:28.473Z,23.38
2018-05-14T09:07:28.513Z,23.26
2018-05-14T09:08:28.437Z,23.42
2018-05-14T09:09:28.422Z,23.26
2018-05-14T09:10:28.396Z,23.35
2018-05-14T09:11:28.374Z,23.25
2018-05-14T09:12:28.402Z,23.25
2018-05-14T09:13:28.379Z,23.37
2018-05-14T09:14:28.318Z,23.41
2018-05-14T09:15:28.293Z,23.42
2018-05-14T09:16:28.277Z,23.53
2018-05-14T09:17:28.257Z,23.53
2018-05-14T09:18:28.279Z,23.60
2018-05-14T09:19:28.254Z,23.60
2018-05-14T09:20:28.199Z,23.66
2018-05-14T09:21:28.221Z,23.57
2018-05-14T09:22:28.164Z,23.57
2018-05-14T09:23:28.139Z,23.63
2018-05-14T09:24:28.645Z,23.64
2018-05-14T09:25:28.160Z,23.60
2018-05-14T09:26:28.084Z,23.67
2018-05-14T09:27:28.058Z,23.71
2018-05-14T09:28:28.039Z,23.72
2018-05-14T09:29:28.089Z,23.75
2018-05-14T09:30:28.001Z,23.85
2018-05-14T09:31:27.989Z,23.78
2018-05-14T09:32:27.966Z,23.84
2018-05-14T09:33:27.943Z,23.77
2018-05-14T09:34:27.971Z,23.90
2018-05-14T09:35:27.908Z,23.85
2018-05-14T09:36:27.897Z,23.85
2018-05-14T09:37:27.868Z,23.85
2018-05-14T09:38:27.896Z,23.90
2018-05-14T09:39:27.828Z,23.99
2018-05-14T09:40:27.808Z,23.96
2018-05-14T09:41:27.790Z,23.94
2018-05-14T09:42:27.768Z,23.94
2018-05-14T09:43:27.795Z,23.89
2018-05-14T09:44:27.749Z,23.93
2018-05-14T09:45:27.761Z,23.89
2018-05-14T09:46:27.704Z,23.92
2018-05-14T09:47:27.673Z,23.93
2018-05-14T09:48:27.656Z,23.96
2018-05-14T09:49:27.691Z,24.03
2018-05-14T09:50:27.630Z,24.11
2018-05-14T09:51:27.595Z,24.00
2018-05-14T09:52:27.574Z,23.94
2018-05-14T09:53:27.557Z,23.89
2018-05-14T09:54:27.585Z,23.92
2018-05-14T09:55:27.568Z,23.96
2018-05-14T09:56:27.514Z,23.96
2018-05-14T09:57:27.480Z,24.02
2018-05-14T09:58:27.506Z,24.00
2018-05-14T09:59:27.439Z,23.97
2018-05-14T10:00:27.476Z,24.03
2018-05-14T10:01:27.403Z,24.11
2018-05-14T10:02:27.381Z,24.11
2018-05-14T10:03:27.418Z,24.12
2018-05-14T10:04:27.343Z,24.14
2018-05-14T10:05:27.381Z,24.11
2018-05-14T10:06:27.309Z,24.11
2018-05-14T10:07:27.288Z,24.03
2018-05-14T10:08:27.278Z,24.08
2018-05-14T10:09:27.247Z,24.03
2018-05-14T10:10:27.281Z,24.02
2018-05-14T10:11:27.239Z,23.94
2018-05-14T10:12:27.204Z,23.96
2018-05-14T10:13:27.174Z,23.90
2018-05-14T10:14:27.217Z,24.03
2018-05-14T10:15:27.132Z,23.94
2018-05-14T10:16:27.175Z,23.93
2018-05-14T10:17:27.095Z,23.96
2018-05-14T10:18:27.076Z,23.93
2018-05-14T10:19:27.058Z,23.94
2018-05-14T10:20:27.034Z,23.92
2018-05-14T10:21:27.060Z,23.90
2018-05-14T10:22:27.042Z,23.94
2018-05-14T10:23:26.975Z,23.93
2018-05-14T10:24:26.956Z,23.96
2018-05-14T10:25:26.934Z,24.02
2018-05-14T10:26:26.972Z,24.09
2018-05-14T10:27:26.901Z,24.22
2018-05-14T10:28:26.934Z,24.24
2018-05-14T10:29:26.910Z,24.19
2018-05-14T10:30:26.838Z,24.19
2018-05-14T10:31:26.816Z,24.29
2018-05-14T10:32:26.851Z,24.24
2018-05-14T10:33:26.781Z,24.33
2018-05-14T10:34:26.810Z,24.33
2018-05-14T10:35:26.737Z,24.37
2018-05-14T10:36:26.764Z,24.27
2018-05-14T10:37:26.703Z,24.34
2018-05-14T10:38:26.731Z,24.24
2018-05-14T10:39:26.667Z,24.12
2018-05-14T10:40:26.648Z,24.14
2018-05-14T10:41:26.625Z,24.03
2018-05-14T10:42:26.610Z,24.03
2018-05-14T10:43:26.636Z,24.09
2018-05-14T10:44:26.571Z,24.14
2018-05-14T10:45:26.593Z,24.09
2018-05-14T10:46:26.533Z,24.18
2018-05-14T10:47:26.508Z,24.15
2018-05-14T10:48:26.491Z,24.24
2018-05-14T10:49:26.475Z,24.27
2018-05-14T10:50:26.495Z,24.24
2018-05-14T10:51:26.477Z,24.27
2018-05-14T10:52:26.454Z,24.15
2018-05-14T10:53:26.400Z,24.22
2018-05-14T10:54:26.419Z,24.12
2018-05-14T10:55:26.354Z,24.17
2018-05-14T10:56:26.341Z,24.24
2018-05-14T10:57:26.316Z,24.24
2018-05-14T10:58:26.299Z,24.19
2018-05-14T10:59:26.317Z,24.29
2018-05-14T11:00:26.259Z,24.36
2018-05-14T11:01:26.239Z,24.33
2018-05-14T11:02:26.268Z,24.22
2018-05-14T11:03:26.203Z,24.33
2018-05-14T11:04:26.234Z,24.26
2018-05-14T11:05:26.157Z,24.27
2018-05-14T11:06:26.136Z,24.24
2018-05-14T11:07:26.119Z,24.14
2018-05-14T11:08:26.149Z,24.14
2018-05-14T11:09:26.077Z,24.09
2018-05-14T11:10:26.065Z,24.21
2018-05-14T11:11:26.040Z,24.24
2018-05-14T11:12:26.020Z,24.18
2018-05-14T11:13:26.068Z,24.19
2018-05-14T11:14:25.985Z,24.21
2018-05-14T11:15:25.965Z,24.21
2018-05-14T11:16:25.992Z,24.32
2018-05-14T11:17:25.936Z,24.36
2018-05-14T11:18:25.909Z,24.39
2018-05-14T11:19:25.938Z,24.32
2018-05-14T11:20:25.869Z,24.30
2018-05-14T11:21:25.889Z,24.30
2018-05-14T11:22:25.870Z,24.30
2018-05-14T11:23:25.810Z,24.26
2018-05-14T11:24:25.822Z,24.36
2018-05-14T11:25:25.774Z,24.37
2018-05-14T11:26:25.820Z,24.39
2018-05-14T11:27:25.840Z,24.37
2018-05-14T11:28:25.713Z,24.33
2018-05-14T11:29:25.693Z,24.29
2018-05-14T11:30:25.671Z,24.33
2018-05-14T11:31:25.721Z,24.29
2018-05-14T11:32:25.636Z,24.26
2018-05-14T11:33:25.625Z,24.30
2018-05-14T11:34:25.595Z,24.30
2018-05-14T11:35:25.589Z,24.40
2018-05-14T11:36:25.683Z,24.39
2018-05-14T11:37:25.584Z,24.33
2018-05-14T11:38:25.517Z,24.34
2018-05-14T11:39:25.501Z,24.40
2018-05-14T11:40:25.481Z,24.37
2018-05-14T11:41:25.516Z,24.40
2018-05-14T11:42:25.440Z,24.51
2018-05-14T11:43:25.682Z,24.40
2018-05-14T11:44:25.404Z,24.37
2018-05-14T11:45:25.386Z,24.37
2018-05-14T11:46:25.423Z,24.42
2018-05-14T11:47:25.349Z,24.37
2018-05-14T11:48:25.323Z,24.24
2018-05-14T11:49:25.308Z,24.19
2018-05-14T11:50:25.290Z,24.27
2018-05-14T11:51:25.328Z,24.14
2018-05-14T11:52:25.249Z,24.09
2018-05-14T11:53:25.236Z,24.14
2018-05-14T11:54:25.209Z,24.08
2018-05-14T11:55:25.193Z,24.09
2018-05-14T11:56:25.212Z,24.12
2018-05-14T11:57:25.151Z,24.09
2018-05-14T11:58:25.132Z,24.17
2018-05-14T11:59:25.172Z,24.14
2018-05-14T12:00:25.093Z,24.17
2018-05-14T12:01:25.081Z,24.19
2018-05-14T12:02:25.101Z,24.24
2018-05-14T12:03:25.040Z,24.29
2018-05-14T12:04:25.016Z,24.34
2018-05-14T12:05:25.005Z,24.42
2018-05-14T12:06:24.983Z,24.33
2018-05-14T12:07:25.016Z,24.21
2018-05-14T12:08:24.941Z,24.19
2018-05-14T12:09:24.925Z,24.26
2018-05-14T12:10:24.898Z,24.29
2018-05-14T12:11:24.900Z,24.24
2018-05-14T12:12:24.902Z,24.21
2018-05-14T12:13:24.853Z,24.21
2018-05-14T12:14:24.823Z,24.21
2018-05-14T12:15:24.802Z,24.24
2018-05-14T12:16:24.810Z,24.26
2018-05-14T12:17:24.838Z,24.19
2018-05-14T12:18:24.748Z,24.22
2018-05-14T12:19:24.724Z,24.14
2018-05-14T12:20:24.707Z,24.14
2018-05-14T12:21:24.691Z,24.12
2018-05-14T12:22:24.733Z,24.21
2018-05-14T12:23:24.653Z,24.17
2018-05-14T12:24:24.632Z,24.24
2018-05-14T12:25:24.630Z,24.15
2018-05-14T12:26:24.597Z,24.22
2018-05-14T12:27:24.620Z,24.14
2018-05-14T12:28:24.554Z,24.26
2018-05-14T12:29:24.533Z,24.17
2018-05-14T12:30:24.512Z,24.12
2018-05-14T12:31:24.495Z,24.09
2018-05-14T12:32:24.524Z,24.12
2018-05-14T12:33:24.455Z,24.17
2018-05-14T12:34:24.439Z,24.03
2018-05-14T12:35:24.415Z,24.02
2018-05-14T12:36:24.452Z,23.99
2018-05-14T12:37:24.386Z,23.97
2018-05-14T12:38:24.358Z,23.99
2018-05-14T12:39:24.341Z,23.90
2018-05-14T12:40:24.318Z,23.93
2018-05-14T12:41:24.346Z,23.99
2018-05-14T12:42:24.281Z,24.04
2018-05-14T12:43:24.261Z,24.09
2018-05-14T12:44:24.244Z,24.17
2018-05-14T12:45:24.272Z,24.09
2018-05-14T12:46:24.202Z,24.09
2018-05-14T12:47:24.184Z,24.07
2018-05-14T12:48:24.162Z,24.07
2018-05-14T12:49:24.199Z,24.00
2018-05-14T12:50:24.133Z,24.02
2018-05-14T12:51:24.113Z,24.00
2018-05-14T12:52:24.083Z,24.03